CheckWX is a tool to help pilots better visualize weather data.  It is not intended as a substitute for an official pre-flight weather briefing.

03:02:05 UTC

KSHV TAF
Shreveport Regional Airport
Shreveport, Louisiana, USA
KSHV 152340Z 1600/1624 19010KT P6SM SCT025 BKN200 FM160600 19007KT P6SM VCSH BKN025 FM160900 20006KT 5SM -SHRA BR BKN010 FM161400 22008KT P6SM VCTS BKN010CB FM161800 30014G20KT P6SM OVC015

Dec-16@
00:00 UTC

Dec-16 @ 00:00 UTC

Dec-16@
06:00 UTC

Dec-16 @ 06:00 UTC

KSHV 152340Z 1600/1624 19010KT P6SM SCT025 BKN200
Wind
  • 190° at 10 KTS
Cloud Levels
  • Scattered at 2,500' AGL
  • Broken at 20,000' AGL

Dec-16@
06:00 UTC

Dec-16 @ 06:00 UTC

Dec-16@
09:00 UTC

Dec-16 @ 09:00 UTC

FM160600 19007KT P6SM VCSH BKN025

From

From Standard forecast or significant change

Wind
  • 190° at 7 KTS
Cloud Levels
  • Broken at 2,500' AGL

Dec-16@
09:00 UTC

Dec-16 @ 09:00 UTC

Dec-16@
14:00 UTC

Dec-16 @ 14:00 UTC

FM160900 20006KT 5SM -SHRA BR BKN010

From

From Standard forecast or significant change

Wind
  • 200° at 6 KTS
Conditions
Light Rain, Mist
Cloud Levels
  • Broken at 1,000' AGL

Dec-16@
14:00 UTC

Dec-16 @ 14:00 UTC

Dec-16@
18:00 UTC

Dec-16 @ 18:00 UTC

FM161400 22008KT P6SM VCTS BKN010CB

From

From Standard forecast or significant change

Wind
  • 220° at 8 KTS
Conditions
Area Thunderstorm
Cloud Levels
  • Broken at 1,000' AGL

Dec-16@
18:00 UTC

Dec-16 @ 18:00 UTC

Dec-17@
00:00 UTC

Dec-17 @ 00:00 UTC

FM161800 30014G20KT P6SM OVC015

From

From Standard forecast or significant change

Wind
  • 300° at 14 KTS
  • {Gusting to 20 KTS
Cloud Levels
  • Overcast at 1,500' AGL